Latest Weather Observations for Swan Hill

IDN60801

Issued at 8:35 pm EST Friday 18 April 2014 (issued every 30 minutes, with the page automatically refreshed every 10 minutes)

About weather observations | Map of weather stations | Latest weather observations for NSW | Other Formats
Station Details ID: 077094 Name: SWAN HILL AERODROME Lat: -35.38 Lon: 143.54 Height: 71.0 m
Data from the previous 72 hours. | See also: Recent months at Swan Hill
Date/Time
EST
Temp
°C
App
Temp
°C
Dew
Point
Rel
Hum
%
Delta-T
°C
Wind Press
QNH
hPa
Press
MSL
hPa
Rain
since 9 am
mm
Dir
 
Spd
km/h
Gust
km/h
Spd
kts
Gust
kts
18/08:30pm 13.6 10.2 3.9 52 4.4 S 11 15 6 8 1020.1 - 0.0
18/08:00pm 14.1 10.7 3.8 50 4.7 S 11 15 6 8 1019.9 - 0.0
18/07:30pm 14.5 11.5 4.3 50 4.7 SSW 9 13 5 7 1019.6 - 0.0
18/07:00pm 15.4 11.9 3.6 45 5.4 S 11 15 6 8 1019.3 - 0.0
18/06:30pm 16.5 12.9 3.2 41 6.1 S 11 17 6 9 1018.9 - 0.0
18/06:00pm 17.9 12.6 2.0 34 7.2 S 19 26 10 14 1018.5 1018.5 0.0
18/05:30pm 19.0 13.0 0.8 29 8.1 SW 22 32 12 17 1018.1 - 0.0
18/05:00pm 19.7 12.3 -0.4 26 8.8 SW 28 39 15 21 1017.8 - 0.0
18/04:30pm 20.2 13.6 2.0 30 8.4 SSW 26 41 14 22 1017.4 - 0.0
18/04:00pm 21.0 14.3 5.5 36 7.7 SW 30 44 16 24 1017.0 - 0.0
18/03:48pm 20.9 14.6 5.9 37 7.5 SSW 28 48 15 26 1017.0 - 0.0
18/03:30pm 21.2 15.7 7.4 41 7.1 SSW 26 35 14 19 1017.0 - 0.0
18/03:00pm 20.9 15.6 9.7 48 6.0 WSW 28 33 15 18 1016.8 1016.8 0.0
18/02:30pm 20.2 15.2 10.9 55 5.1 SW 28 39 15 21 1016.8 - 0.0
18/02:00pm 19.9 14.4 10.5 54 5.1 SW 30 41 16 22 1016.7 - 0.0
18/01:30pm 20.0 13.8 11.3 57 4.8 SW 35 44 19 24 1016.7 - 0.0
18/01:00pm 21.7 14.9 7.9 41 7.2 WSW 33 43 18 23 1016.8 - 0.0
18/12:30pm 22.1 15.6 9.0 43 7.0 WSW 33 43 18 23 1017.0 - 0.0
18/12:00pm 21.7 15.5 9.2 44 6.7 WSW 32 44 17 24 1017.5 1017.5 0.0
18/11:30am 21.1 15.1 10.7 51 5.7 WSW 33 48 18 26 1017.5 - 0.0
18/11:00am 21.2 16.2 10.8 51 5.7 WSW 28 39 15 21 1017.7 - 0.0
18/10:30am 20.2 15.4 10.4 53 5.3 WSW 26 35 14 19 1017.9 - 0.0
18/10:00am 19.7 14.1 10.2 54 5.1 WSW 30 37 16 20 1018.0 - 0.0
18/09:30am 18.8 14.1 9.1 53 5.1 W 24 32 13 17 1017.9 - 0.0
18/09:00am 17.2 13.5 9.6 61 4.0 WNW 19 24 10 13 1018.2 1018.2 0.0
18/08:30am 15.6 14.3 11.3 75 2.3 NNW 9 13 5 7 1017.9 - 0.0
18/08:00am 12.9 11.9 11.0 88 1.0 NNW 7 9 4 5 1017.8 - 0.0
18/07:30am 11.8 10.6 10.2 90 0.8 NNW 7 9 4 5 1017.8 - 0.0
18/07:00am 11.9 10.6 9.9 87 1.0 NNW 7 7 4 4 1017.6 - 0.0
18/06:30am 11.5 10.4 9.9 90 0.8 NNW 6 7 3 4 1017.4 - 0.0
18/06:00am 11.6 10.2 9.6 87 1.0 NNW 7 9 4 5 1017.4 1017.4 0.0
18/05:30am 10.8 9.4 9.4 91 0.7 NNW 7 7 4 4 1017.4 - 0.0
18/05:00am 9.9 7.9 8.7 92 0.6 NNW 9 9 5 5 1017.4 - 0.0
18/04:30am 10.2 8.6 8.8 91 0.7 NNW 7 7 4 4 1017.3 - 0.0
18/04:00am 10.8 9.3 9.0 89 0.9 NNW 7 9 4 5 1017.2 - 0.0
18/03:30am 10.9 9.4 9.1 89 0.9 NNW 7 9 4 5 1017.4 - 0.0
18/03:00am 11.2 9.8 9.4 89 0.9 NNW 7 9 4 5 1017.3 1017.3 0.0
18/02:30am 11.7 10.2 9.3 85 1.2 NNW 7 7 4 4 1017.6 - 0.0
18/02:00am 12.1 10.8 9.1 82 1.5 NNW 6 6 3 3 1017.8 - 0.0
18/01:30am 11.9 10.4 9.1 83 1.4 NW 7 9 4 5 1018.1 - 0.0
18/01:00am 12.3 10.9 9.5 83 1.4 NNW 7 9 4 5 1018.3 - 0.0
18/12:30am 13.1 11.6 9.1 77 2.0 NNW 7 9 4 5 1018.4 - 0.0
18/12:00am 12.9 11.5 9.4 79 1.8 NNW 7 7 4 4 1018.9 1018.8 0.0
 
Date/Time
EST
Temp
°C
App
Temp
°C
Dew
Point
Rel
Hum
%
Delta-T
°C
Wind Press
QNH
hPa
Press
MSL
hPa
Rain
since 9 am
mm
Dir
 
Spd
km/h
Gust
km/h
Spd
kts
Gust
kts
17/11:30pm 13.3 11.6 8.5 72 2.4 NW 7 9 4 5 1019.1 - 0.0
17/11:00pm 13.2 11.6 8.6 73 2.3 NW 7 9 4 5 1019.4 - 0.0
17/10:30pm 13.4 11.8 8.8 74 2.3 NW 7 9 4 5 1019.5 - 0.0
17/10:00pm 13.6 12.0 8.8 73 2.4 NW 7 7 4 4 1019.6 - 0.0
17/09:30pm 14.0 12.2 9.3 73 2.4 NW 9 11 5 6 1019.5 - 0.0
17/09:00pm 14.5 13.3 9.4 71 2.6 NW 6 9 3 5 1019.5 1019.4 0.0
17/08:30pm 14.9 13.4 9.2 68 2.9 NW 7 9 4 5 1019.4 - 0.0
17/08:00pm 15.4 13.6 9.6 68 3.0 NNW 9 9 5 5 1019.4 - 0.0
17/07:30pm 16.2 14.3 9.0 62 3.7 NNW 9 11 5 6 1019.2 - 0.0
17/07:00pm 18.1 16.0 8.4 53 5.0 NNW 9 9 5 5 1019.0 - 0.0
17/06:30pm 18.2 16.8 8.8 54 4.9 NW 6 7 3 4 1018.7 - 0.0
17/06:00pm 20.1 17.9 7.9 45 6.3 NNW 9 11 5 6 1018.5 1018.5 0.0
17/05:30pm 21.8 19.1 7.5 39 7.4 NNW 11 15 6 8 1018.4 - 0.0
17/05:00pm 23.6 20.4 5.3 30 9.2 N 11 17 6 9 1018.2 - 0.0
17/04:30pm 24.2 20.8 5.7 30 9.4 NNW 13 20 7 11 1018.3 - 0.0
17/04:00pm 24.0 20.1 5.4 30 9.4 NNW 15 24 8 13 1018.5 - 0.0
17/03:30pm 24.5 21.1 5.9 30 9.5 N 13 20 7 11 1018.7 - 0.0
17/03:00pm 24.5 20.1 5.0 28 9.8 NW 17 24 9 13 1019.0 1018.9 0.0
17/02:30pm 23.7 20.4 6.4 32 8.9 NNW 13 20 7 11 1019.2 - 0.0
17/02:00pm 24.2 20.9 6.6 32 9.1 N 13 20 7 11 1019.4 - 0.0
17/01:30pm 23.5 19.8 6.3 33 8.8 NNW 15 22 8 12 1019.7 - 0.0
17/01:00pm 23.6 20.4 7.0 34 8.6 NW 13 19 7 10 1020.1 - 0.0
17/12:30pm 23.4 19.4 6.7 34 8.6 N 17 24 9 13 1020.5 - 0.0
17/12:00pm 23.1 19.1 6.8 35 8.4 N 17 26 9 14 1020.9 1020.8 0.0
17/11:30am 22.6 19.1 7.4 37 7.9 N 15 20 8 11 1021.3 - 0.0
17/11:00am 21.9 18.1 7.4 39 7.5 NNW 17 20 9 11 1021.6 - 0.0
17/10:30am 21.1 17.5 8.5 44 6.6 NNW 17 20 9 11 1021.6 - 0.0
17/10:00am 19.8 16.8 9.4 51 5.5 N 15 19 8 10 1021.6 - 0.0
17/09:30am 18.2 16.1 9.9 58 4.4 N 11 15 6 8 1021.4 - 0.0
17/09:00am 17.0 15.3 10.0 63 3.7 ENE 9 13 5 7 1021.5 1021.4 0.0
17/08:30am 15.2 15.6 11.1 76 2.2 CALM 0 6 0 3 1021.5 - 0.0
17/08:00am 12.6 13.0 11.3 92 0.7 CALM 0 0 0 0 1021.2 - 0.0
17/07:30am 10.9 9.7 10.3 96 0.3 E 7 9 4 5 1020.9 - 0.0
17/07:00am 9.6 8.2 9.0 96 0.3 E 6 9 3 5 1020.7 - 0.0
17/06:30am 9.6 9.4 9.0 96 0.3 CALM 0 0 0 0 1020.5 - 0.0
17/06:00am 9.9 9.4 9.3 96 0.3 E 2 7 1 4 1020.4 1020.3 0.0
17/05:30am 9.8 9.3 9.2 96 0.3 E 2 9 1 5 1020.2 - 0.0
17/05:00am 10.1 10.0 9.5 96 0.3 CALM 0 0 0 0 1019.9 - 0.0
17/04:30am 10.3 10.2 9.5 95 0.4 CALM 0 0 0 0 1019.7 - 0.0
17/04:00am 10.6 10.5 9.6 93 0.5 CALM 0 0 0 0 1019.5 - 0.0
17/03:30am 11.0 11.0 9.8 92 0.6 CALM 0 0 0 0 1019.3 - 0.0
17/03:00am 11.3 11.3 9.9 91 0.7 CALM 0 0 0 0 1019.2 1019.1 0.0
17/02:30am 11.7 11.8 10.1 90 0.8 CALM 0 0 0 0 1019.3 - 0.0
17/02:00am 12.3 12.4 10.2 87 1.1 CALM 0 0 0 0 1019.4 - 0.0
17/01:30am 12.5 12.7 10.4 87 1.1 CALM 0 0 0 0 1019.4 - 0.0
17/01:00am 13.1 12.2 10.6 85 1.3 E 6 7 3 4 1019.4 - 0.0
17/12:30am 13.3 12.4 10.8 85 1.3 E 6 7 3 4 1019.5 - 0.0
17/12:00am 13.5 13.2 11.4 87 1.1 E 4 9 2 5 1019.6 1019.5 0.0
 
Date/Time
EST
Temp
°C
App
Temp
°C
Dew
Point
Rel
Hum
%
Delta-T
°C
Wind Press
QNH
hPa
Press
MSL
hPa
Rain
since 9 am
mm
Dir
 
Spd
km/h
Gust
km/h
Spd
kts
Gust
kts
16/11:30pm 13.5 12.0 10.4 81 1.6 E 9 13 5 7 1019.1 - 0.0
16/11:00pm 13.2 12.6 10.3 82 1.5 WSW 4 7 2 4 1019.6 - 0.0
16/10:30pm 13.2 12.5 10.1 81 1.6 WSW 4 9 2 5 1019.9 - 0.0
16/10:00pm 14.1 12.5 10.1 77 2.1 SW 9 11 5 6 1019.8 - 0.0
16/09:30pm 13.7 13.0 10.0 78 1.9 WSW 4 11 2 6 1019.7 - 0.0
16/09:00pm 14.0 14.1 10.1 77 2.0 CALM 0 0 0 0 1020.1 1020.0 0.0
16/08:30pm 14.7 14.7 9.7 72 2.6 CALM 0 0 0 0 1020.0 - 0.0
16/08:00pm 15.1 15.1 9.7 70 2.8 CALM 0 0 0 0 1019.9 - 0.0
16/07:30pm 16.3 15.1 9.6 64 3.5 WSW 6 7 3 4 1019.7 - 0.0
16/07:00pm 17.3 15.7 8.8 57 4.4 WSW 7 9 4 5 1019.6 - 0.0
16/06:30pm 18.6 16.8 7.8 49 5.5 WSW 7 9 4 5 1019.3 - 0.0
16/06:00pm 18.8 17.2 8.8 52 5.2 WSW 7 9 4 5 1018.9 1018.8 0.0
16/05:30pm 21.4 18.7 7.2 40 7.3 SW 11 15 6 8 1018.6 - 0.0
16/05:00pm 21.0 19.2 7.9 43 6.8 W 7 9 4 5 1018.5 - 0.0
16/04:30pm 22.4 21.1 7.6 38 7.7 W 4 11 2 6 1018.3 - 0.0
16/04:00pm 21.7 19.8 6.8 38 7.6 W 6 11 3 6 1018.5 - 0.0
16/03:30pm 21.8 18.9 6.4 36 7.8 NNW 11 15 6 8 1018.6 - 0.0
16/03:00pm 21.6 18.4 7.0 39 7.5 WNW 13 20 7 11 1018.6 1018.6 0.0
16/02:30pm 21.7 18.9 7.1 39 7.5 SW 11 19 6 10 1018.9 - 0.0
16/02:00pm 21.6 19.1 6.7 38 7.6 W 9 17 5 9 1018.9 - 0.0
16/01:30pm 21.7 19.1 7.6 40 7.3 NNW 11 19 6 10 1019.1 - 0.0
16/01:00pm 20.4 18.1 7.6 43 6.6 N 9 13 5 7 1019.4 - 0.0
16/12:30pm 20.3 18.2 8.4 46 6.2 WNW 9 15 5 8 1020.1 - 0.0
16/12:00pm 20.6 18.5 8.1 44 6.5 WNW 9 15 5 8 1020.5 1020.4 0.0
16/11:30am 20.5 18.9 8.7 46 6.2 NNW 7 15 4 8 1020.6 - 0.0
16/11:00am 19.8 18.4 9.7 52 5.4 NNW 7 13 4 7 1020.9 - 0.0
16/10:30am 18.4 18.2 10.4 59 4.3 SE 2 9 1 5 1021.2 - 0.0
16/10:00am 17.6 17.3 11.5 67 3.3 SE 4 7 2 4 1021.5 - 0.0
16/09:30am 16.0 15.4 11.6 75 2.4 SE 6 7 3 4 1021.6 - 0.0
16/09:00am 14.3 13.4 11.3 82 1.6 SE 7 9 4 5 1021.6 1021.5 0.0
16/08:30am 12.4 11.3 10.5 88 1.0 SE 7 9 4 5 1021.7 - 0.0
16/08:00am 11.2 10.5 10.2 94 0.5 SSE 4 7 2 4 1021.5 - 0.0
16/07:30am 9.3 9.0 8.7 96 0.3 CALM 0 0 0 0 1021.1 - 0.0
16/07:00am 8.6 7.0 8.0 96 0.3 SE 6 7 3 4 1020.7 - 0.0
16/06:30am 8.8 7.1 8.2 96 0.3 SE 7 9 4 5 1020.8 - 0.0
16/06:00am 8.8 7.1 8.2 96 0.3 SSE 7 7 4 4 1020.7 1020.6 0.0
16/05:30am 9.3 7.6 8.5 95 0.4 SSE 7 9 4 5 1020.8 - 0.0
16/05:00am 9.6 8.0 8.6 93 0.5 SSE 7 9 4 5 1020.5 - 0.0
16/04:30am 9.9 8.3 8.7 92 0.6 SSE 7 9 4 5 1020.5 - 0.0
16/04:00am 10.0 8.4 8.8 92 0.6 SSE 7 9 4 5 1020.1 - 0.0
16/03:30am 10.0 8.4 8.6 91 0.7 SSE 7 9 4 5 1019.8 - 0.0
16/03:00am 10.1 8.1 8.5 90 0.8 SSE 9 11 5 6 1019.7 1019.6 0.0
16/02:30am 10.4 8.7 8.4 87 1.0 SSE 7 9 4 5 1019.9 - 0.0
16/02:00am 10.8 9.2 8.6 86 1.1 SSE 7 9 4 5 1020.4 - 0.0
16/01:30am 11.2 9.2 8.8 85 1.2 SSE 9 11 5 6 1020.5 - 0.0
16/01:00am 11.8 9.8 8.8 82 1.5 SSE 9 11 5 6 1020.6 - 0.0
16/12:30am 11.8 9.8 8.8 82 1.5 SSE 9 11 5 6 1020.5 - 0.0
16/12:00am 11.2 10.0 9.4 89 0.9 SSE 6 7 3 4 1020.6 1020.5 0.0
 
Date/Time
EST
Temp
°C
App
Temp
°C
Dew
Point
Rel
Hum
%
Delta-T
°C
Wind Press
QNH
hPa
Press
MSL
hPa
Rain
since 9 am
mm
Dir
 
Spd
km/h
Gust
km/h
Spd
kts
Gust
kts
15/11:30pm 11.4 11.3 9.4 87 1.0 CALM 0 0 0 0 1020.8 - 0.0
15/11:00pm 11.6 11.6 9.8 89 0.9 CALM 0 0 0 0 1021.0 - 0.0
15/10:30pm 12.1 12.1 9.7 85 1.2 CALM 0 0 0 0 1021.1 - 0.0
15/10:00pm 12.4 11.9 9.4 82 1.5 SSE 2 6 1 3 1021.3 - 0.0
15/09:30pm 13.9 12.7 9.4 74 2.3 SSE 6 7 3 4 1021.4 - 0.0
15/09:00pm 14.7 13.2 9.0 68 2.9 SSE 7 9 4 5 1021.3 1021.2 0.0

Other Formats:

Comma delimited format used in spreadsheet applications
http://www.bom.gov.au/fwo/IDN60801/IDN60801.94843.axf

JavaScript Object Notation format (JSON) in row-major order
http://www.bom.gov.au/fwo/IDN60801/IDN60801.94843.json